KGFA/GFA METAR and TAF weather

Enter ICAO airport designator
Station Type Date Time Source
KGFA METAR 2020/09/21 04:58 UTC NOAA

KGFA 210458Z AUTO 25006KT 10SM CLR 11/04 A3005 RMK AO2 SLP174 T01050040 $


Station Type Date Time Source
KGFA Decoded METAR 2020/09/21 04:58 UTC NOAA

Malmstrom Air Force Base, MT, United States (KGFA) 47-30N 111-11W
Sep 21, 2020 - 12:58 AM EDT / 2020.09.21 0458 UTC
Wind: from the WSW (250 degrees) at 7 MPH (6 KT):0
Visibility: 10 mile(s):0
Sky conditions: clear
Temperature: 50.9 F (10.5 C)
Dew Point: 39.2 F (4.0 C)
Relative Humidity: 64%
Pressure (altimeter): 30.05 in. Hg (1017 hPa)
ob: KGFA 210458Z AUTO 25006KT 10SM CLR 11/04 A3005 RMK AO2 SLP174 T01050040
cycle: 5

Station Type Date Time Source
KGFA TAF 2020/09/20 03:02 UTC NOAA

TAF KGFA 200300Z 2003/2109 23015G20KT 9999 BKN060 QNH2988INS
BECMG 2016/2017 27012G18KT 8000 -SHRA OVC060 QNH2997INS
BECMG 2102/2103 VRB06KT 9999 NSW SCT080 QNH3002INS TX21/2020Z TN09/2011Z LAST NO
AMDS AFT 2006 NEXT 2111

Example: see airport list